sensor_id;sensor_type;location;lat;lon;timestamp;temperature;humidity
81321;DHT22;70785;52.570;5.638;2023-08-01T00:02:20;16.80;75.70
81321;DHT22;70785;52.570;5.638;2023-08-01T00:04:46;16.70;75.70
81321;DHT22;70785;52.570;5.638;2023-08-01T00:07:12;16.70;75.70
81321;DHT22;70785;52.570;5.638;2023-08-01T00:09:39;16.70;75.70
81321;DHT22;70785;52.570;5.638;2023-08-01T00:12:05;16.70;75.70
81321;DHT22;70785;52.570;5.638;2023-08-01T00:14:31;16.60;75.70
81321;DHT22;70785;52.570;5.638;2023-08-01T00:17:01;16.60;75.70
81321;DHT22;70785;52.570;5.638;2023-08-01T00:19:27;16.60;75.70
81321;DHT22;70785;52.570;5.638;2023-08-01T00:21:54;16.50;75.80
81321;DHT22;70785;52.570;5.638;2023-08-01T00:24:20;16.50;75.80
81321;DHT22;70785;52.570;5.638;2023-08-01T00:26:46;16.50;75.90
81321;DHT22;70785;52.570;5.638;2023-08-01T00:29:13;16.50;75.90
81321;DHT22;70785;52.570;5.638;2023-08-01T00:31:39;16.40;75.90
81321;DHT22;70785;52.570;5.638;2023-08-01T00:34:05;16.40;76.00
81321;DHT22;70785;52.570;5.638;2023-08-01T00:36:31;16.40;76.00
81321;DHT22;70785;52.570;5.638;2023-08-01T00:38:58;16.40;76.10
81321;DHT22;70785;52.570;5.638;2023-08-01T00:41:24;16.40;76.00
81321;DHT22;70785;52.570;5.638;2023-08-01T00:43:50;16.40;76.00
81321;DHT22;70785;52.570;5.638;2023-08-01T00:46:16;16.40;75.90
81321;DHT22;70785;52.570;5.638;2023-08-01T00:48:42;16.40;75.90
81321;DHT22;70785;52.570;5.638;2023-08-01T00:51:09;16.40;75.90
81321;DHT22;70785;52.570;5.638;2023-08-01T00:53:35;16.40;75.90
81321;DHT22;70785;52.570;5.638;2023-08-01T00:56:02;16.20;75.90
81321;DHT22;70785;52.570;5.638;2023-08-01T00:58:29;16.20;75.90
81321;DHT22;70785;52.570;5.638;2023-08-01T01:00:55;16.20;75.90
81321;DHT22;70785;52.570;5.638;2023-08-01T01:03:23;16.20;75.90
81321;DHT22;70785;52.570;5.638;2023-08-01T01:05:55;16.10;75.90
81321;DHT22;70785;52.570;5.638;2023-08-01T01:08:22;16.10;75.90
81321;DHT22;70785;52.570;5.638;2023-08-01T01:10:48;16.00;75.90
81321;DHT22;70785;52.570;5.638;2023-08-01T01:13:14;16.00;75.90
81321;DHT22;70785;52.570;5.638;2023-08-01T01:15:40;16.00;75.90
81321;DHT22;70785;52.570;5.638;2023-08-01T01:18:06;16.00;76.00
81321;DHT22;70785;52.570;5.638;2023-08-01T01:20:36;16.00;75.90
81321;DHT22;70785;52.570;5.638;2023-08-01T01:23:06;15.80;75.90
81321;DHT22;70785;52.570;5.638;2023-08-01T01:25:34;15.80;76.00
81321;DHT22;70785;52.570;5.638;2023-08-01T01:28:04;15.80;76.00
81321;DHT22;70785;52.570;5.638;2023-08-01T01:30:31;15.70;76.10
81321;DHT22;70785;52.570;5.638;2023-08-01T01:33:00;15.60;76.10
81321;DHT22;70785;52.570;5.638;2023-08-01T01:35:26;15.60;76.20
81321;DHT22;70785;52.570;5.638;2023-08-01T01:37:52;15.60;76.20
81321;DHT22;70785;52.570;5.638;2023-08-01T01:40:18;15.60;76.20
81321;DHT22;70785;52.570;5.638;2023-08-01T01:42:45;15.50;76.20
81321;DHT22;70785;52.570;5.638;2023-08-01T01:45:11;15.50;76.40
81321;DHT22;70785;52.570;5.638;2023-08-01T01:47:37;15.40;76.40
81321;DHT22;70785;52.570;5.638;2023-08-01T01:50:03;15.40;76.50
81321;DHT22;70785;52.570;5.638;2023-08-01T01:52:31;15.40;76.50
81321;DHT22;70785;52.570;5.638;2023-08-01T01:54:59;15.30;76.60
81321;DHT22;70785;52.570;5.638;2023-08-01T01:57:26;15.30;76.60
81321;DHT22;70785;52.570;5.638;2023-08-01T01:59:52;15.40;76.70
81321;DHT22;70785;52.570;5.638;2023-08-01T02:02:18;15.30;76.70
81321;DHT22;70785;52.570;5.638;2023-08-01T02:04:46;15.40;76.70
81321;DHT22;70785;52.570;5.638;2023-08-01T02:07:12;15.40;76.60
81321;DHT22;70785;52.570;5.638;2023-08-01T02:09:40;15.50;76.60
81321;DHT22;70785;52.570;5.638;2023-08-01T02:12:10;15.50;76.50
81321;DHT22;70785;52.570;5.638;2023-08-01T02:14:40;15.50;76.50
81321;DHT22;70785;52.570;5.638;2023-08-01T02:17:07;15.50;76.50
81321;DHT22;70785;52.570;5.638;2023-08-01T02:19:33;15.60;76.50
81321;DHT22;70785;52.570;5.638;2023-08-01T02:22:00;15.60;76.50
81321;DHT22;70785;52.570;5.638;2023-08-01T02:24:26;15.60;76.50
81321;DHT22;70785;52.570;5.638;2023-08-01T02:26:52;15.60;76.40
81321;DHT22;70785;52.570;5.638;2023-08-01T02:29:18;15.60;76.40
81321;DHT22;70785;52.570;5.638;2023-08-01T02:31:44;15.70;76.40
81321;DHT22;70785;52.570;5.638;2023-08-01T02:34:10;15.80;76.40
81321;DHT22;70785;52.570;5.638;2023-08-01T02:36:36;15.80;76.30
81321;DHT22;70785;52.570;5.638;2023-08-01T02:39:02;15.80;76.40
81321;DHT22;70785;52.570;5.638;2023-08-01T02:41:28;15.80;76.20
81321;DHT22;70785;52.570;5.638;2023-08-01T02:43:55;15.90;76.20
81321;DHT22;70785;52.570;5.638;2023-08-01T02:46:21;15.90;76.20
81321;DHT22;70785;52.570;5.638;2023-08-01T02:48:48;15.80;75.60
81321;DHT22;70785;52.570;5.638;2023-08-01T02:51:14;15.50;75.90
81321;DHT22;70785;52.570;5.638;2023-08-01T02:53:40;15.20;76.20
81321;DHT22;70785;52.570;5.638;2023-08-01T02:56:07;15.00;76.50
81321;DHT22;70785;52.570;5.638;2023-08-01T02:58:36;14.90;76.80
81321;DHT22;70785;52.570;5.638;2023-08-01T03:01:06;14.80;77.10
81321;DHT22;70785;52.570;5.638;2023-08-01T03:03:34;14.80;77.30
81321;DHT22;70785;52.570;5.638;2023-08-01T03:06:02;14.70;77.30
81321;DHT22;70785;52.570;5.638;2023-08-01T03:08:28;14.70;77.40
81321;DHT22;70785;52.570;5.638;2023-08-01T03:10:55;14.70;77.50
81321;DHT22;70785;52.570;5.638;2023-08-01T03:13:22;14.70;77.60
81321;DHT22;70785;52.570;5.638;2023-08-01T03:15:48;14.70;77.80
81321;DHT22;70785;52.570;5.638;2023-08-01T03:18:14;14.70;77.80
81321;DHT22;70785;52.570;5.638;2023-08-01T03:20:40;14.70;77.90
81321;DHT22;70785;52.570;5.638;2023-08-01T03:23:07;14.80;77.80
81321;DHT22;70785;52.570;5.638;2023-08-01T03:25:33;14.70;77.70
81321;DHT22;70785;52.570;5.638;2023-08-01T03:27:59;14.70;77.80
81321;DHT22;70785;52.570;5.638;2023-08-01T03:30:25;14.70;77.80
81321;DHT22;70785;52.570;5.638;2023-08-01T03:32:53;14.70;77.90
81321;DHT22;70785;52.570;5.638;2023-08-01T03:35:19;14.70;77.90
81321;DHT22;70785;52.570;5.638;2023-08-01T03:37:45;14.60;77.80
81321;DHT22;70785;52.570;5.638;2023-08-01T03:40:11;14.60;77.90
81321;DHT22;70785;52.570;5.638;2023-08-01T03:42:37;14.60;78.00
81321;DHT22;70785;52.570;5.638;2023-08-01T03:45:04;14.60;78.10
81321;DHT22;70785;52.570;5.638;2023-08-01T03:47:31;14.60;78.10
81321;DHT22;70785;52.570;5.638;2023-08-01T03:49:57;14.60;78.10
81321;DHT22;70785;52.570;5.638;2023-08-01T03:52:24;14.60;78.20
81321;DHT22;70785;52.570;5.638;2023-08-01T03:54:53;14.60;78.10
81321;DHT22;70785;52.570;5.638;2023-08-01T03:57:20;14.70;78.10
81321;DHT22;70785;52.570;5.638;2023-08-01T03:59:46;14.70;78.20
81321;DHT22;70785;52.570;5.638;2023-08-01T04:02:12;14.70;78.10
81321;DHT22;70785;52.570;5.638;2023-08-01T04:04:38;14.70;78.10
81321;DHT22;70785;52.570;5.638;2023-08-01T04:07:04;14.70;78.20
81321;DHT22;70785;52.570;5.638;2023-08-01T04:09:30;14.70;78.30
81321;DHT22;70785;52.570;5.638;2023-08-01T04:11:57;14.70;78.30
81321;DHT22;70785;52.570;5.638;2023-08-01T04:14:23;14.70;78.40
81321;DHT22;70785;52.570;5.638;2023-08-01T04:16:49;14.70;78.30
81321;DHT22;70785;52.570;5.638;2023-08-01T04:19:15;14.80;78.40
81321;DHT22;70785;52.570;5.638;2023-08-01T04:21:41;14.80;78.30
81321;DHT22;70785;52.570;5.638;2023-08-01T04:24:07;14.80;78.40
81321;DHT22;70785;52.570;5.638;2023-08-01T04:26:33;14.80;78.40
81321;DHT22;70785;52.570;5.638;2023-08-01T04:28:59;14.80;78.50
81321;DHT22;70785;52.570;5.638;2023-08-01T04:31:25;14.90;78.50
81321;DHT22;70785;52.570;5.638;2023-08-01T04:33:51;14.80;78.40
81321;DHT22;70785;52.570;5.638;2023-08-01T04:36:17;14.70;78.50
81321;DHT22;70785;52.570;5.638;2023-08-01T04:38:43;14.60;78.40
81321;DHT22;70785;52.570;5.638;2023-08-01T04:41:10;14.50;78.60
81321;DHT22;70785;52.570;5.638;2023-08-01T04:43:36;14.40;78.60
81321;DHT22;70785;52.570;5.638;2023-08-01T04:46:02;14.30;78.60
81321;DHT22;70785;52.570;5.638;2023-08-01T04:48:28;14.30;78.60
81321;DHT22;70785;52.570;5.638;2023-08-01T04:50:54;14.20;78.60
81321;DHT22;70785;52.570;5.638;2023-08-01T04:53:20;14.20;78.80
81321;DHT22;70785;52.570;5.638;2023-08-01T04:55:46;14.20;78.70
81321;DHT22;70785;52.570;5.638;2023-08-01T04:58:12;14.20;78.70
81321;DHT22;70785;52.570;5.638;2023-08-01T05:00:41;14.10;78.80
81321;DHT22;70785;52.570;5.638;2023-08-01T05:03:07;14.20;78.70
81321;DHT22;70785;52.570;5.638;2023-08-01T05:05:33;14.10;78.80
81321;DHT22;70785;52.570;5.638;2023-08-01T05:07:59;14.20;78.80
81321;DHT22;70785;52.570;5.638;2023-08-01T05:10:25;14.20;78.90
81321;DHT22;70785;52.570;5.638;2023-08-01T05:12:51;14.30;79.00
81321;DHT22;70785;52.570;5.638;2023-08-01T05:15:17;14.40;79.00
81321;DHT22;70785;52.570;5.638;2023-08-01T05:17:43;14.50;79.00
81321;DHT22;70785;52.570;5.638;2023-08-01T05:20:10;14.60;79.00
81321;DHT22;70785;52.570;5.638;2023-08-01T05:22:36;14.60;79.00
81321;DHT22;70785;52.570;5.638;2023-08-01T05:25:02;14.70;79.00
81321;DHT22;70785;52.570;5.638;2023-08-01T05:27:30;14.80;79.00
81321;DHT22;70785;52.570;5.638;2023-08-01T05:29:57;14.90;79.00
81321;DHT22;70785;52.570;5.638;2023-08-01T05:32:23;14.90;79.00
81321;DHT22;70785;52.570;5.638;2023-08-01T05:34:49;15.00;79.00
81321;DHT22;70785;52.570;5.638;2023-08-01T05:37:15;15.00;79.00
81321;DHT22;70785;52.570;5.638;2023-08-01T05:39:41;15.00;79.00
81321;DHT22;70785;52.570;5.638;2023-08-01T05:42:07;15.10;79.10
81321;DHT22;70785;52.570;5.638;2023-08-01T05:44:36;15.20;79.20
81321;DHT22;70785;52.570;5.638;2023-08-01T05:47:02;15.20;79.10
81321;DHT22;70785;52.570;5.638;2023-08-01T05:49:28;15.20;79.10
81321;DHT22;70785;52.570;5.638;2023-08-01T05:51:55;15.30;79.10
81321;DHT22;70785;52.570;5.638;2023-08-01T05:54:21;15.30;79.10
81321;DHT22;70785;52.570;5.638;2023-08-01T05:56:48;15.40;79.00
81321;DHT22;70785;52.570;5.638;2023-08-01T05:59:14;15.40;79.00
81321;DHT22;70785;52.570;5.638;2023-08-01T06:01:40;15.50;78.70
81321;DHT22;70785;52.570;5.638;2023-08-01T06:04:06;15.50;78.70
81321;DHT22;70785;52.570;5.638;2023-08-01T06:06:32;15.50;78.50
81321;DHT22;70785;52.570;5.638;2023-08-01T06:08:58;15.50;78.40
81321;DHT22;70785;52.570;5.638;2023-08-01T06:11:24;15.50;78.40
81321;DHT22;70785;52.570;5.638;2023-08-01T06:13:52;15.50;78.40
81321;DHT22;70785;52.570;5.638;2023-08-01T06:16:18;15.50;78.30
81321;DHT22;70785;52.570;5.638;2023-08-01T06:18:44;15.50;78.30
81321;DHT22;70785;52.570;5.638;2023-08-01T06:21:11;15.60;78.30
81321;DHT22;70785;52.570;5.638;2023-08-01T06:23:37;15.60;78.30
81321;DHT22;70785;52.570;5.638;2023-08-01T06:26:03;15.60;78.30
81321;DHT22;70785;52.570;5.638;2023-08-01T06:28:29;15.60;77.90
81321;DHT22;70785;52.570;5.638;2023-08-01T06:30:55;15.60;77.70
81321;DHT22;70785;52.570;5.638;2023-08-01T06:33:21;15.70;77.60
81321;DHT22;70785;52.570;5.638;2023-08-01T06:35:47;15.60;77.60
81321;DHT22;70785;52.570;5.638;2023-08-01T06:38:13;15.70;77.60
81321;DHT22;70785;52.570;5.638;2023-08-01T06:40:39;15.60;77.50
81321;DHT22;70785;52.570;5.638;2023-08-01T06:43:06;15.60;77.30
81321;DHT22;70785;52.570;5.638;2023-08-01T06:45:32;15.60;77.40
81321;DHT22;70785;52.570;5.638;2023-08-01T06:47:58;15.50;77.30
81321;DHT22;70785;52.570;5.638;2023-08-01T06:50:24;15.50;77.20
81321;DHT22;70785;52.570;5.638;2023-08-01T06:52:50;15.50;77.20
81321;DHT22;70785;52.570;5.638;2023-08-01T06:55:16;15.60;77.20
81321;DHT22;70785;52.570;5.638;2023-08-01T06:57:42;15.60;77.30
81321;DHT22;70785;52.570;5.638;2023-08-01T07:00:09;15.70;77.30
81321;DHT22;70785;52.570;5.638;2023-08-01T07:02:35;15.80;77.30
81321;DHT22;70785;52.570;5.638;2023-08-01T07:05:01;15.80;77.00
81321;DHT22;70785;52.570;5.638;2023-08-01T07:07:27;15.90;76.80
81321;DHT22;70785;52.570;5.638;2023-08-01T07:09:53;15.90;76.80
81321;DHT22;70785;52.570;5.638;2023-08-01T07:12:19;16.00;76.60
81321;DHT22;70785;52.570;5.638;2023-08-01T07:14:45;16.10;76.40
81321;DHT22;70785;52.570;5.638;2023-08-01T07:17:11;16.20;76.20
81321;DHT22;70785;52.570;5.638;2023-08-01T07:19:37;16.30;76.00
81321;DHT22;70785;52.570;5.638;2023-08-01T07:22:04;16.30;75.90
81321;DHT22;70785;52.570;5.638;2023-08-01T07:24:30;16.40;76.00
81321;DHT22;70785;52.570;5.638;2023-08-01T07:26:56;16.40;76.00
81321;DHT22;70785;52.570;5.638;2023-08-01T07:29:22;16.50;75.70
81321;DHT22;70785;52.570;5.638;2023-08-01T07:31:48;16.60;75.70
81321;DHT22;70785;52.570;5.638;2023-08-01T07:34:15;16.60;75.60
81321;DHT22;70785;52.570;5.638;2023-08-01T07:36:41;16.60;75.40
81321;DHT22;70785;52.570;5.638;2023-08-01T07:39:07;16.70;75.20
81321;DHT22;70785;52.570;5.638;2023-08-01T07:41:33;16.70;74.90
81321;DHT22;70785;52.570;5.638;2023-08-01T07:44:03;16.80;74.70
81321;DHT22;70785;52.570;5.638;2023-08-01T07:46:29;16.90;74.60
81321;DHT22;70785;52.570;5.638;2023-08-01T07:48:55;17.00;74.40
81321;DHT22;70785;52.570;5.638;2023-08-01T07:51:21;17.20;74.10
81321;DHT22;70785;52.570;5.638;2023-08-01T07:53:48;17.20;73.80
81321;DHT22;70785;52.570;5.638;2023-08-01T07:56:14;17.10;73.70
81321;DHT22;70785;52.570;5.638;2023-08-01T07:58:40;17.00;73.80
81321;DHT22;70785;52.570;5.638;2023-08-01T08:01:06;17.00;73.30
81321;DHT22;70785;52.570;5.638;2023-08-01T08:03:32;16.90;73.50
81321;DHT22;70785;52.570;5.638;2023-08-01T08:05:58;16.90;73.20
81321;DHT22;70785;52.570;5.638;2023-08-01T08:08:24;16.90;73.20
81321;DHT22;70785;52.570;5.638;2023-08-01T08:10:51;17.00;72.90
81321;DHT22;70785;52.570;5.638;2023-08-01T08:13:17;17.00;72.70
81321;DHT22;70785;52.570;5.638;2023-08-01T08:15:43;17.20;72.50
81321;DHT22;70785;52.570;5.638;2023-08-01T08:18:09;17.50;72.30
81321;DHT22;70785;52.570;5.638;2023-08-01T08:20:42;17.70;72.10
81321;DHT22;70785;52.570;5.638;2023-08-01T08:23:09;18.00;71.80
81321;DHT22;70785;52.570;5.638;2023-08-01T08:25:35;18.10;71.40
81321;DHT22;70785;52.570;5.638;2023-08-01T08:28:01;18.10;71.40
81321;DHT22;70785;52.570;5.638;2023-08-01T08:30:27;18.10;71.20
81321;DHT22;70785;52.570;5.638;2023-08-01T08:32:53;18.10;70.60
81321;DHT22;70785;52.570;5.638;2023-08-01T08:35:19;18.10;70.30
81321;DHT22;70785;52.570;5.638;2023-08-01T08:37:45;18.10;70.00
81321;DHT22;70785;52.570;5.638;2023-08-01T08:40:12;18.20;69.60
81321;DHT22;70785;52.570;5.638;2023-08-01T08:42:39;18.20;69.30
81321;DHT22;70785;52.570;5.638;2023-08-01T08:45:06;18.10;69.50
81321;DHT22;70785;52.570;5.638;2023-08-01T08:47:36;18.10;69.40
81321;DHT22;70785;52.570;5.638;2023-08-01T08:50:05;18.00;69.40
81321;DHT22;70785;52.570;5.638;2023-08-01T08:52:31;18.00;69.60
81321;DHT22;70785;52.570;5.638;2023-08-01T08:54:57;18.10;69.50
81321;DHT22;70785;52.570;5.638;2023-08-01T08:57:24;18.30;69.30
81321;DHT22;70785;52.570;5.638;2023-08-01T08:59:51;18.30;69.30
81321;DHT22;70785;52.570;5.638;2023-08-01T09:02:19;18.20;69.20
81321;DHT22;70785;52.570;5.638;2023-08-01T09:04:46;18.10;69.10
81321;DHT22;70785;52.570;5.638;2023-08-01T09:07:15;18.00;69.10
81321;DHT22;70785;52.570;5.638;2023-08-01T09:09:41;17.80;69.50
81321;DHT22;70785;52.570;5.638;2023-08-01T09:12:08;17.50;69.80
81321;DHT22;70785;52.570;5.638;2023-08-01T09:14:35;17.30;70.20
81321;DHT22;70785;52.570;5.638;2023-08-01T09:17:10;17.20;70.50
81321;DHT22;70785;52.570;5.638;2023-08-01T09:19:37;17.00;70.80
81321;DHT22;70785;52.570;5.638;2023-08-01T09:22:13;16.90;71.20
81321;DHT22;70785;52.570;5.638;2023-08-01T09:24:39;16.50;72.10
81321;DHT22;70785;52.570;5.638;2023-08-01T09:27:05;16.40;73.00
81321;DHT22;70785;52.570;5.638;2023-08-01T09:29:32;16.20;73.60
81321;DHT22;70785;52.570;5.638;2023-08-01T09:31:58;16.10;74.10
81321;DHT22;70785;52.570;5.638;2023-08-01T09:34:26;15.90;74.30
81321;DHT22;70785;52.570;5.638;2023-08-01T09:37:01;15.70;74.90
81321;DHT22;70785;52.570;5.638;2023-08-01T09:39:28;15.60;75.50
81321;DHT22;70785;52.570;5.638;2023-08-01T09:42:02;15.40;75.70
81321;DHT22;70785;52.570;5.638;2023-08-01T09:44:29;15.30;76.00
81321;DHT22;70785;52.570;5.638;2023-08-01T09:47:00;15.10;76.20
81321;DHT22;70785;52.570;5.638;2023-08-01T09:49:27;15.00;76.30
81321;DHT22;70785;52.570;5.638;2023-08-01T09:51:53;14.90;76.60
81321;DHT22;70785;52.570;5.638;2023-08-01T09:54:21;14.80;76.80
81321;DHT22;70785;52.570;5.638;2023-08-01T09:56:49;14.80;77.10
81321;DHT22;70785;52.570;5.638;2023-08-01T09:59:22;14.80;77.30
81321;DHT22;70785;52.570;5.638;2023-08-01T10:01:54;14.90;77.30
81321;DHT22;70785;52.570;5.638;2023-08-01T10:04:31;15.00;77.50
81321;DHT22;70785;52.570;5.638;2023-08-01T10:07:03;15.00;77.50
81321;DHT22;70785;52.570;5.638;2023-08-01T10:09:30;15.20;77.60
81321;DHT22;70785;52.570;5.638;2023-08-01T10:11:57;15.40;77.50
81321;DHT22;70785;52.570;5.638;2023-08-01T10:14:25;15.60;77.60
81321;DHT22;70785;52.570;5.638;2023-08-01T10:16:52;15.70;77.40
81321;DHT22;70785;52.570;5.638;2023-08-01T10:19:19;15.80;77.30
81321;DHT22;70785;52.570;5.638;2023-08-01T10:21:47;16.00;77.20
81321;DHT22;70785;52.570;5.638;2023-08-01T10:24:13;16.00;77.00
81321;DHT22;70785;52.570;5.638;2023-08-01T10:26:40;16.10;76.90
81321;DHT22;70785;52.570;5.638;2023-08-01T10:29:06;16.10;76.90
81321;DHT22;70785;52.570;5.638;2023-08-01T10:31:33;16.10;76.70
81321;DHT22;70785;52.570;5.638;2023-08-01T10:34:13;16.10;76.60
81321;DHT22;70785;52.570;5.638;2023-08-01T10:36:39;16.10;76.60
81321;DHT22;70785;52.570;5.638;2023-08-01T10:39:05;16.20;76.60
81321;DHT22;70785;52.570;5.638;2023-08-01T10:41:33;16.20;76.60
81321;DHT22;70785;52.570;5.638;2023-08-01T10:44:12;16.40;76.70
81321;DHT22;70785;52.570;5.638;2023-08-01T10:46:46;16.50;76.70
81321;DHT22;70785;52.570;5.638;2023-08-01T10:49:12;16.60;76.50
81321;DHT22;70785;52.570;5.638;2023-08-01T10:51:38;16.60;76.10
81321;DHT22;70785;52.570;5.638;2023-08-01T10:54:04;16.60;75.80
81321;DHT22;70785;52.570;5.638;2023-08-01T10:56:31;16.60;75.80
81321;DHT22;70785;52.570;5.638;2023-08-01T10:58:58;16.60;75.70
81321;DHT22;70785;52.570;5.638;2023-08-01T11:01:24;16.70;75.70
81321;DHT22;70785;52.570;5.638;2023-08-01T11:03:52;16.80;75.30
81321;DHT22;70785;52.570;5.638;2023-08-01T11:06:18;17.00;75.20
81321;DHT22;70785;52.570;5.638;2023-08-01T11:08:44;17.30;75.10
81321;DHT22;70785;52.570;5.638;2023-08-01T11:11:13;17.50;74.60
81321;DHT22;70785;52.570;5.638;2023-08-01T11:13:39;17.50;74.00
81321;DHT22;70785;52.570;5.638;2023-08-01T11:16:05;17.60;73.90
81321;DHT22;70785;52.570;5.638;2023-08-01T11:18:44;17.80;73.70
81321;DHT22;70785;52.570;5.638;2023-08-01T11:21:11;17.80;72.80
81321;DHT22;70785;52.570;5.638;2023-08-01T11:23:37;17.60;72.50
81321;DHT22;70785;52.570;5.638;2023-08-01T11:26:07;17.50;72.40
81321;DHT22;70785;52.570;5.638;2023-08-01T11:28:34;17.40;72.50
81321;DHT22;70785;52.570;5.638;2023-08-01T11:31:00;17.50;72.10
81321;DHT22;70785;52.570;5.638;2023-08-01T11:33:26;17.50;72.10
81321;DHT22;70785;52.570;5.638;2023-08-01T11:35:54;17.80;72.10
81321;DHT22;70785;52.570;5.638;2023-08-01T11:38:29;18.00;71.80
81321;DHT22;70785;52.570;5.638;2023-08-01T11:40:59;18.10;71.20
81321;DHT22;70785;52.570;5.638;2023-08-01T11:43:25;18.20;70.70
81321;DHT22;70785;52.570;5.638;2023-08-01T11:45:53;18.30;70.40
81321;DHT22;70785;52.570;5.638;2023-08-01T11:48:21;18.40;69.70
81321;DHT22;70785;52.570;5.638;2023-08-01T11:50:48;18.40;69.40
81321;DHT22;70785;52.570;5.638;2023-08-01T11:53:19;18.50;68.60
81321;DHT22;70785;52.570;5.638;2023-08-01T11:55:45;18.50;68.10
81321;DHT22;70785;52.570;5.638;2023-08-01T11:58:11;18.50;68.30
81321;DHT22;70785;52.570;5.638;2023-08-01T12:00:38;18.70;68.50
81321;DHT22;70785;52.570;5.638;2023-08-01T12:03:09;19.00;68.30
81321;DHT22;70785;52.570;5.638;2023-08-01T12:05:41;18.90;68.00
81321;DHT22;70785;52.570;5.638;2023-08-01T12:08:09;18.70;68.40
81321;DHT22;70785;52.570;5.638;2023-08-01T12:10:40;18.40;68.70
81321;DHT22;70785;52.570;5.638;2023-08-01T12:13:06;18.10;69.00
81321;DHT22;70785;52.570;5.638;2023-08-01T12:15:32;17.80;69.50
81321;DHT22;70785;52.570;5.638;2023-08-01T12:17:58;17.80;69.90
81321;DHT22;70785;52.570;5.638;2023-08-01T12:20:24;18.00;69.90
81321;DHT22;70785;52.570;5.638;2023-08-01T12:22:51;18.30;69.90
81321;DHT22;70785;52.570;5.638;2023-08-01T12:25:17;18.60;69.20
81321;DHT22;70785;52.570;5.638;2023-08-01T12:27:43;18.90;69.00
81321;DHT22;70785;52.570;5.638;2023-08-01T12:30:09;19.20;68.30
81321;DHT22;70785;52.570;5.638;2023-08-01T12:32:36;19.20;67.60
81321;DHT22;70785;52.570;5.638;2023-08-01T12:35:03;19.20;67.10
81321;DHT22;70785;52.570;5.638;2023-08-01T12:37:29;19.10;66.60
81321;DHT22;70785;52.570;5.638;2023-08-01T12:39:55;19.20;67.00
81321;DHT22;70785;52.570;5.638;2023-08-01T12:42:22;19.20;66.90
81321;DHT22;70785;52.570;5.638;2023-08-01T12:44:48;19.20;66.70
81321;DHT22;70785;52.570;5.638;2023-08-01T12:47:14;19.20;66.60
81321;DHT22;70785;52.570;5.638;2023-08-01T12:49:40;19.20;66.80
81321;DHT22;70785;52.570;5.638;2023-08-01T12:52:07;19.40;67.00
81321;DHT22;70785;52.570;5.638;2023-08-01T12:54:33;19.50;67.10
81321;DHT22;70785;52.570;5.638;2023-08-01T12:56:59;19.80;67.00
81321;DHT22;70785;52.570;5.638;2023-08-01T12:59:25;20.00;66.50
81321;DHT22;70785;52.570;5.638;2023-08-01T13:01:51;20.20;65.80
81321;DHT22;70785;52.570;5.638;2023-08-01T13:04:17;20.20;65.10
81321;DHT22;70785;52.570;5.638;2023-08-01T13:06:44;20.10;64.90
81321;DHT22;70785;52.570;5.638;2023-08-01T13:09:10;20.00;64.40
81321;DHT22;70785;52.570;5.638;2023-08-01T13:11:37;19.70;64.60
81321;DHT22;70785;52.570;5.638;2023-08-01T13:14:03;19.70;65.00
81321;DHT22;70785;52.570;5.638;2023-08-01T13:16:30;19.80;65.20
81321;DHT22;70785;52.570;5.638;2023-08-01T13:18:56;19.80;65.00
81321;DHT22;70785;52.570;5.638;2023-08-01T13:21:22;19.70;65.00
81321;DHT22;70785;52.570;5.638;2023-08-01T13:23:49;19.80;65.20
81321;DHT22;70785;52.570;5.638;2023-08-01T13:26:15;19.70;65.10
81321;DHT22;70785;52.570;5.638;2023-08-01T13:28:41;19.80;65.20
81321;DHT22;70785;52.570;5.638;2023-08-01T13:31:07;19.90;65.10
81321;DHT22;70785;52.570;5.638;2023-08-01T13:33:33;20.00;64.90
81321;DHT22;70785;52.570;5.638;2023-08-01T13:35:59;20.10;64.50
81321;DHT22;70785;52.570;5.638;2023-08-01T13:38:25;20.10;64.00
81321;DHT22;70785;52.570;5.638;2023-08-01T13:40:51;20.10;64.10
81321;DHT22;70785;52.570;5.638;2023-08-01T13:43:17;20.10;64.40
81321;DHT22;70785;52.570;5.638;2023-08-01T13:45:43;20.10;64.10
81321;DHT22;70785;52.570;5.638;2023-08-01T13:48:09;20.00;64.20
81321;DHT22;70785;52.570;5.638;2023-08-01T13:50:36;20.00;64.30
81321;DHT22;70785;52.570;5.638;2023-08-01T13:53:02;20.00;64.60
81321;DHT22;70785;52.570;5.638;2023-08-01T13:55:28;20.10;64.90
81321;DHT22;70785;52.570;5.638;2023-08-01T13:57:54;20.30;64.40
81321;DHT22;70785;52.570;5.638;2023-08-01T14:00:20;20.40;63.80
81321;DHT22;70785;52.570;5.638;2023-08-01T14:02:49;20.10;63.40
81321;DHT22;70785;52.570;5.638;2023-08-01T14:05:16;19.80;64.30
81321;DHT22;70785;52.570;5.638;2023-08-01T14:07:42;19.50;65.40
81321;DHT22;70785;52.570;5.638;2023-08-01T14:10:08;19.60;66.40
81321;DHT22;70785;52.570;5.638;2023-08-01T14:12:35;19.50;66.40
81321;DHT22;70785;52.570;5.638;2023-08-01T14:15:01;19.30;66.70
81321;DHT22;70785;52.570;5.638;2023-08-01T14:17:27;19.10;66.90
81321;DHT22;70785;52.570;5.638;2023-08-01T14:19:53;19.10;66.90
81321;DHT22;70785;52.570;5.638;2023-08-01T14:22:19;18.90;66.50
81321;DHT22;70785;52.570;5.638;2023-08-01T14:24:45;18.70;66.40
81321;DHT22;70785;52.570;5.638;2023-08-01T14:27:12;18.40;67.10
81321;DHT22;70785;52.570;5.638;2023-08-01T14:29:38;18.30;67.60
81321;DHT22;70785;52.570;5.638;2023-08-01T14:32:04;18.20;68.10
81321;DHT22;70785;52.570;5.638;2023-08-01T14:34:30;18.10;68.30
81321;DHT22;70785;52.570;5.638;2023-08-01T14:36:56;18.20;68.60
81321;DHT22;70785;52.570;5.638;2023-08-01T14:39:23;18.10;68.70
81321;DHT22;70785;52.570;5.638;2023-08-01T14:41:49;18.20;69.00
81321;DHT22;70785;52.570;5.638;2023-08-01T14:44:16;18.40;69.00
81321;DHT22;70785;52.570;5.638;2023-08-01T14:46:42;18.40;68.90
81321;DHT22;70785;52.570;5.638;2023-08-01T14:49:08;18.50;68.90
81321;DHT22;70785;52.570;5.638;2023-08-01T14:51:34;18.50;68.70
81321;DHT22;70785;52.570;5.638;2023-08-01T14:54:00;18.60;68.70
81321;DHT22;70785;52.570;5.638;2023-08-01T14:56:26;18.70;68.90
81321;DHT22;70785;52.570;5.638;2023-08-01T14:58:52;19.00;69.00
81321;DHT22;70785;52.570;5.638;2023-08-01T15:01:18;19.50;69.10
81321;DHT22;70785;52.570;5.638;2023-08-01T15:03:44;19.80;68.30
81321;DHT22;70785;52.570;5.638;2023-08-01T15:06:11;20.00;67.80
81321;DHT22;70785;52.570;5.638;2023-08-01T15:08:38;20.00;67.40
81321;DHT22;70785;52.570;5.638;2023-08-01T15:11:06;19.90;66.70
81321;DHT22;70785;52.570;5.638;2023-08-01T15:13:32;19.60;66.50
81321;DHT22;70785;52.570;5.638;2023-08-01T15:15:58;19.30;66.50
81321;DHT22;70785;52.570;5.638;2023-08-01T15:18:26;19.10;66.80
81321;DHT22;70785;52.570;5.638;2023-08-01T15:20:53;18.70;67.30
81321;DHT22;70785;52.570;5.638;2023-08-01T15:23:19;18.30;68.00
81321;DHT22;70785;52.570;5.638;2023-08-01T15:25:56;18.00;68.60
81321;DHT22;70785;52.570;5.638;2023-08-01T15:28:22;17.60;69.40